Oxford Mills, Iowa
Current Conditions -  °F | °C
As of 8:15 AM on Friday 24 Oct 2014 (Local Time) from KMXO Reporting Station
Moderate Fog Moderate Fog  
Wind Chill: 50°   Ceiling: 200
Heat Index: 50°   Visibility: 0mi
Dew Point: 50°   Wind: 6mph
Humidity: 100%   Direction: 130°SE
Pressure: 30.04"   Gusts: NA
Location:  41.9902°N, 90.9567°W
Report Text: KMXO 241315Z AUTO 13005KT M1/4SM FG OVC002 10/10 A3004 RMK AO2
Loading
Personal Weather Stations






























Interactive Weather Map
Tropical Storm Tracking
New forecast layout! Learn more

10-Day Weather Forecast

Advertisements
Track Severe Weather on mobile